Flight Track Log - Related Links

Times and Time Zones

All times are in EDT time to prevent confusion due to time zone crossing. See the RPA3321 flight status page for this flight to view local times or setup timezone preferences in your user account.

Time Position Orientation Groundspeed Altitude Reporting Facility
EDT Latitude Longitude Course Direction KTS MPH feet Rate Location/Type
Tue 05:44:30 AM 42.7736 -73.8064 318° Northwest 163 188 1,300  Level Boston Center
Tue 05:45:37 AM 42.8086 -73.8494 318° Northwest 208 239 3,000 2,178 Climbing Boston Center
Tue 05:47:07 AM 42.8150 -73.9883 274° West 263 303 7,000 2,520 Climbing Boston Center
Tue 05:48:07 AM 42.7908 -74.0811 250° West 257 296 9,300 1,950 Climbing Boston Center
Tue 05:49:07 AM 42.7583 -74.1678 243° Southwest 276 318 10,900 2,050 Climbing Boston Center
Tue 05:50:07 AM 42.6800 -74.2447 216° Southwest 306 352 13,400 2,200 Climbing Boston Center
Tue 05:51:07 AM 42.6022 -74.2764 197° South 330 380 15,300 1,850 Climbing Boston Center
Tue 05:52:07 AM 42.5028 -74.2369 164° South 330 380 17,100 1,750 Climbing Boston Center
Tue 05:53:07 AM 42.4269 -74.1672 146° Southeast 347 399 18,800 1,600 Climbing Boston Center
Tue 05:54:07 AM 42.3281 -74.0831 148° Southeast 352 405 20,300 1,400 Climbing Boston Center
Tue 05:55:07 AM 42.2375 -74.0047 147° Southeast 376 433 21,600 1,300 Climbing Boston Center
Tue 05:56:07 AM 42.1428 -73.9242 148° Southeast 393 452 22,900 1,208 Climbing Boston Center
Tue 05:57:41 AM 41.9992 -73.8103 149° Southeast 418 481 24,700 1,169 Climbing New York Center
Tue 05:58:41 AM 41.8861 -73.8331 189° South 399 459 25,900 1,210 Climbing New York Center
Tue 05:59:40 AM 41.7764 -73.8919 202° Southwest 398 458 27,100 1,059 Climbing New York Center
Tue 06:00:40 AM 41.6706 -73.9564 204° Southwest 409 471 28,000 446 Climbing New York Center
Tue 06:01:41 AM 41.5747 -74.0322 211° Southwest 414 476 28,000  Level New York Center
Tue 06:02:39 AM 41.4747 -74.1047 209° Southwest 414 476 28,000  Level New York Center
Tue 06:03:39 AM 41.3769 -74.1772 209° Southwest 414 476 28,000  Level New York Center
Tue 06:04:40 AM 41.2622 -74.2517 206° Southwest 415 478 28,000  Level New York Center
Tue 06:05:39 AM 41.1642 -74.3264 210° Southwest 415 478 28,000  Level New York Center
Tue 06:06:40 AM 41.0644 -74.3953 208° Southwest 415 478 28,000  Level New York Center
Tue 06:07:39 AM 40.9642 -74.4697 209° Southwest 420 483 28,000  Level New York Center
Tue 06:08:39 AM 40.8661 -74.5411 209° Southwest 415 478 28,000  Level New York Center
Tue 06:09:39 AM 40.7658 -74.6125 208° Southwest 415 478 28,000  Level New York Center
Tue 06:10:40 AM 40.6678 -74.6808 208° Southwest 415 478 28,000  Level New York Center
Tue 06:11:42 AM 40.5711 -74.7628 213° Southwest 409 471 28,000  Level New York Center
Tue 06:12:42 AM 40.4925 -74.8672 225° Southwest 409 471 28,000  Level New York Center
Tue 06:13:39 AM 40.4200 -74.9747 228° Southwest 409 471 28,000 -153 Level New York Center
Tue 06:14:40 AM 40.3453 -75.0792 227° Southwest 409 471 27,700 -1,240 Descending New York Center
Tue 06:15:40 AM 40.2661 -75.1911 227° Southwest 409 471 25,500 -2,066 Descending New York Center
Tue 06:16:42 AM 40.2000 -75.2875 228° Southwest 409 471 23,500 -1,765 Descending New York Center
Tue 06:17:39 AM 40.1294 -75.3861 227° Southwest 396 456 22,000 -763 Descending New York Center
Tue 06:18:40 AM 40.0631 -75.4875 229° Southwest 385 443 22,000  Level New York Center
Tue 06:19:41 AM 39.9961 -75.5914 230° Southwest 380 437 22,000  Level New York Center
Tue 06:20:39 AM 39.9317 -75.6925 230° Southwest 380 437 22,000  Level New York Center
Tue 06:21:40 AM 39.8647 -75.7958 230° Southwest 380 437 22,000  Level New York Center
Tue 06:22:41 AM 39.8000 -75.8967 230° Southwest 380 437 22,000 -1,471 Level New York Center
Tue 06:25:08 AM 39.6333 -76.1500 230° Southwest 357 411 16,900 -2,030 Descending Potomac TRACON
Tue 06:26:02 AM 39.5667 -76.2333 224° Southwest 337 388 15,200 -1,842 Descending Potomac TRACON
Tue 06:27:02 AM 39.5167 -76.3333 237° Southwest 321 369 13,400 -1,524 Descending Potomac TRACON
Tue 06:28:08 AM 39.4500 -76.4167 224° Southwest 314 361 12,000 -900 Descending Potomac TRACON
Tue 06:29:02 AM 39.3833 -76.4833 218° Southwest 316 364 11,600 -737 Descending Potomac TRACON
Tue 06:30:02 AM 39.3167 -76.5500 218° Southwest 308 354 10,600 -889 Descending Potomac TRACON
Tue 06:30:50 AM 39.2500 -76.5833 201° Southwest 304 350 10,000 -353 Descending Potomac TRACON
Tue 06:31:44 AM 39.2000 -76.6500 226° Southwest 286 329 10,000  Level Potomac TRACON
Tue 06:32:39 AM 39.1500 -76.7167 226° Southwest 279 321 10,000  Level Potomac TRACON
Tue 06:33:33 AM 39.1333 -76.8000 256° West 276 318 10,000 -53 Level Potomac TRACON
Tue 06:34:33 AM 39.1000 -76.8833 243° Southwest 239 275 9,900 -950 Descending Potomac TRACON
Tue 06:35:33 AM 39.0833 -76.9500 252° West 221 254 8,100 -2,000 Descending Potomac TRACON
Tue 06:36:33 AM 39.0667 -77.0167 252° West 222 255 5,900 -2,400 Descending Potomac TRACON
Tue 06:37:33 AM 39.0333 -77.0833 237° Southwest 217 250 3,300 -1,450 Descending Potomac TRACON
Tue 06:38:33 AM 39.0000 -77.1500 237° Southwest 186 214 3,000 -300 Descending Potomac TRACON

Login

Don't have an account? Register now (free) for customized features, flight alerts, and more!